Time;durP1;ratioP1;P1;durP2;ratioP2;P2;SDS_P1;SDS_P2;PMS_P1;PMS_P2;Temp;Humidity;BMP_temperature;BMP_pressure;BME280_temperature;BME280_humidity;BME280_pressure;Samples;Min_cycle;Max_cycle;Signal;HPM_P1;HPM_P2
2021/06/03 00:00:15;;;;;;;5.20;4.63;;;19.20;99.90;;;;;;5049835;28;20563;-82
2021/06/03 00:02:43;;;;;;;4.97;4.57;;;19.20;99.90;;;;;;5053304;28;20279;-81
2021/06/03 00:05:13;;;;;;;5.60;4.97;;;19.10;99.90;;;;;;5050218;28;20264;-81
2021/06/03 00:07:41;;;;;;;7.73;5.70;;;19.10;99.90;;;;;;5049723;28;20250;-81
2021/06/03 00:10:10;;;;;;;5.50;4.77;;;19.10;99.90;;;;;;5049555;28;20234;-81
2021/06/03 00:12:37;;;;;;;5.87;4.67;;;19.10;99.90;;;;;;5049648;28;20250;-81
2021/06/03 00:15:11;;;;;;;5.57;4.53;;;19.10;99.90;;;;;;5047776;28;20230;-81
2021/06/03 00:17:39;;;;;;;5.33;4.60;;;19.10;99.90;;;;;;5057646;28;20234;-81
2021/06/03 00:20:09;;;;;;;5.23;4.73;;;19.00;99.90;;;;;;5062907;28;20321;-81
2021/06/03 00:22:38;;;;;;;6.17;5.20;;;19.00;99.90;;;;;;5067556;28;20604;-81
2021/06/03 00:25:07;;;;;;;5.83;5.03;;;19.00;99.90;;;;;;5049920;28;20325;-81
2021/06/03 00:27:37;;;;;;;5.37;4.80;;;18.90;99.90;;;;;;5049312;28;20259;-82
2021/06/03 00:30:07;;;;;;;5.53;5.03;;;18.90;99.90;;;;;;5047763;28;20244;-81
2021/06/03 00:32:35;;;;;;;5.50;5.00;;;18.90;99.90;;;;;;5049190;28;20264;-82
2021/06/03 00:35:04;;;;;;;5.30;4.80;;;18.90;99.90;;;;;;5049385;28;20721;-81
2021/06/03 00:37:32;;;;;;;5.33;4.83;;;18.90;99.90;;;;;;5048957;28;20237;-82
2021/06/03 00:40:01;;;;;;;5.33;4.83;;;18.80;99.90;;;;;;5064510;28;20650;-81
2021/06/03 00:42:29;;;;;;;5.37;4.87;;;18.90;99.90;;;;;;5067579;28;20279;-81
2021/06/03 00:44:57;;;;;;;5.23;4.73;;;18.80;99.90;;;;;;5047272;28;20260;-82
2021/06/03 00:47:25;;;;;;;7.00;5.10;;;18.80;99.90;;;;;;5048764;28;20237;-81
2021/06/03 00:49:53;;;;;;;5.80;5.20;;;18.80;99.90;;;;;;5048925;28;21140;-81
2021/06/03 00:52:21;;;;;;;5.50;5.00;;;18.80;99.90;;;;;;5049784;28;20295;-82
2021/06/03 00:54:48;;;;;;;6.50;5.30;;;18.80;99.90;;;;;;5048189;28;20750;-81
2021/06/03 00:57:18;;;;;;;5.70;4.70;;;18.70;99.90;;;;;;5049026;28;20879;-82
2021/06/03 00:59:48;;;;;;;5.40;4.90;;;18.70;99.90;;;;;;5047191;28;20319;-82
2021/06/03 01:02:16;;;;;;;5.87;5.30;;;18.70;99.90;;;;;;5051796;28;20246;-81
2021/06/03 01:04:44;;;;;;;5.57;4.63;;;18.70;99.90;;;;;;5064191;28;20233;-81
2021/06/03 01:07:12;;;;;;;4.50;4.10;;;18.70;99.90;;;;;;5052233;28;20263;-81
2021/06/03 01:09:48;;;;;;;6.87;5.33;;;18.60;99.90;;;;;;5047143;28;20677;-81
2021/06/03 01:12:21;;;;;;;7.37;4.70;;;18.60;99.90;;;;;;5050635;28;20229;-81
2021/06/03 01:14:53;;;;;;;6.13;4.70;;;18.60;99.90;;;;;;5048919;28;20904;-81
2021/06/03 01:17:22;;;;;;;5.93;5.43;;;18.70;99.90;;;;;;5052133;28;20228;-82
2021/06/03 01:19:53;;;;;;;8.30;5.10;;;18.60;99.90;;;;;;5048745;28;20678;-81
2021/06/03 01:22:24;;;;;;;5.50;5.00;;;18.60;99.90;;;;;;5048788;28;20229;-81
2021/06/03 01:24:58;;;;;;;6.27;4.80;;;18.60;99.90;;;;;;5064269;28;20311;-81
2021/06/03 01:27:31;;;;;;;6.10;4.70;;;18.60;99.90;;;;;;5050123;28;20250;-81
2021/06/03 01:30:07;;;;;;;5.57;5.00;;;18.50;99.90;;;;;;5048474;28;20229;-81
2021/06/03 01:32:39;;;;;;;5.40;4.90;;;18.50;99.90;;;;;;5050129;28;20226;-81
2021/06/03 01:35:16;;;;;;;5.67;5.17;;;18.50;99.90;;;;;;5049136;28;20245;-80
2021/06/03 01:37:48;;;;;;;5.47;4.97;;;18.50;99.90;;;;;;5063280;28;20321;-81
2021/06/03 01:40:19;;;;;;;7.77;5.30;;;18.50;99.90;;;;;;5048409;28;20313;-81
2021/06/03 01:42:48;;;;;;;5.43;4.93;;;18.50;99.90;;;;;;5052622;28;20695;-81
2021/06/03 01:45:17;;;;;;;5.70;4.90;;;18.40;99.90;;;;;;5048923;28;20241;-82
2021/06/03 01:47:46;;;;;;;5.83;4.47;;;18.40;99.90;;;;;;5057194;28;20594;-81
2021/06/03 01:50:16;;;;;;;5.30;4.90;;;18.50;99.90;;;;;;5061320;28;20227;-81
2021/06/03 01:52:48;;;;;;;6.23;4.93;;;18.40;99.90;;;;;;5064090;28;20338;-81
2021/06/03 01:55:18;;;;;;;5.93;4.50;;;18.40;99.90;;;;;;5048917;28;20244;-81
2021/06/03 01:57:46;;;;;;;5.27;4.77;;;18.30;99.90;;;;;;5053849;28;20239;-81
2021/06/03 02:00:24;;;;;;;4.60;4.17;;;18.30;99.90;;;;;;5050727;28;20236;-81
2021/06/03 02:02:55;;;;;;;6.97;5.13;;;18.30;99.90;;;;;;5070882;28;20248;-81
2021/06/03 02:05:27;;;;;;;5.37;4.70;;;18.20;99.90;;;;;;5050789;28;20226;-81
2021/06/03 02:07:58;;;;;;;4.80;4.40;;;18.20;99.90;;;;;;5062985;28;20232;-82
2021/06/03 02:10:30;;;;;;;5.63;4.40;;;18.20;99.90;;;;;;5074974;28;20681;-81
2021/06/03 02:13:05;;;;;;;6.57;4.87;;;18.30;99.90;;;;;;5053582;28;20574;-81
2021/06/03 02:15:36;;;;;;;5.20;4.80;;;18.20;99.90;;;;;;5050379;28;20248;-81
2021/06/03 02:18:11;;;;;;;5.40;4.90;;;18.10;99.90;;;;;;5067006;28;20252;-80
2021/06/03 02:20:42;;;;;;;5.33;4.93;;;18.10;99.90;;;;;;5049408;28;20692;-81
2021/06/03 02:23:18;;;;;;;6.23;4.93;;;18.00;99.90;;;;;;5070383;28;20239;-81
2021/06/03 02:25:51;;;;;;;6.83;5.27;;;18.00;99.90;;;;;;5050451;28;20251;-81
2021/06/03 02:28:19;;;;;;;5.40;4.90;;;17.90;99.90;;;;;;5070757;28;20649;-81
2021/06/03 02:30:49;;;;;;;5.80;5.20;;;17.90;99.90;;;;;;5050447;28;20311;-81
2021/06/03 02:33:19;;;;;;;5.60;5.10;;;17.90;99.90;;;;;;5078790;28;20641;-82
2021/06/03 02:35:47;;;;;;;6.20;5.00;;;17.90;99.90;;;;;;5050079;28;20707;-81
2021/06/03 02:38:22;;;;;;;5.73;5.13;;;17.80;99.90;;;;;;5066595;28;20241;-81
2021/06/03 02:40:53;;;;;;;5.20;4.80;;;17.80;99.90;;;;;;5050500;28;20282;-82
2021/06/03 02:43:22;;;;;;;5.40;4.90;;;17.70;99.90;;;;;;5051336;28;20225;-81
2021/06/03 02:45:50;;;;;;;5.70;5.10;;;17.80;99.90;;;;;;5052364;28;20255;-82
2021/06/03 02:48:19;;;;;;;5.43;4.97;;;17.80;99.90;;;;;;5054461;28;20616;-81
2021/06/03 02:50:48;;;;;;;6.07;5.00;;;17.80;99.90;;;;;;5066907;28;20236;-81
2021/06/03 02:53:16;;;;;;;6.17;5.27;;;17.70;99.90;;;;;;5051894;28;20259;-81
2021/06/03 02:55:45;;;;;;;6.17;4.80;;;17.70;99.90;;;;;;5066814;28;20241;-81
2021/06/03 02:58:16;;;;;;;6.07;5.17;;;17.70;99.90;;;;;;5066564;28;20239;-80
2021/06/03 03:00:46;;;;;;;5.80;5.30;;;17.60;99.90;;;;;;5050817;28;20232;-82
2021/06/03 03:03:16;;;;;;;5.80;5.30;;;17.60;99.90;;;;;;5077930;28;20686;-81
2021/06/03 03:05:45;;;;;;;7.27;5.97;;;17.60;99.90;;;;;;5049781;28;20238;-81
2021/06/03 03:08:19;;;;;;;5.97;5.30;;;17.50;99.90;;;;;;5048868;28;20319;-81
2021/06/03 03:10:50;;;;;;;5.50;5.00;;;17.50;99.90;;;;;;5062844;28;20232;-81
2021/06/03 03:13:23;;;;;;;5.70;5.20;;;17.50;99.90;;;;;;5046788;28;20726;-81
2021/06/03 03:15:52;;;;;;;5.57;5.07;;;17.50;99.90;;;;;;5051290;28;20237;-81
2021/06/03 03:18:21;;;;;;;6.00;5.40;;;17.50;99.90;;;;;;5068524;28;20281;-81
2021/06/03 03:20:49;;;;;;;5.80;5.20;;;17.50;99.90;;;;;;5049208;28;20266;-81
2021/06/03 03:23:17;;;;;;;5.27;4.80;;;17.50;99.90;;;;;;5069308;28;20228;-81
2021/06/03 03:25:55;;;;;;;5.30;4.80;;;17.50;99.90;;;;;;5050462;28;20238;-81
2021/06/03 03:28:24;;;;;;;6.67;5.27;;;17.50;99.90;;;;;;5052381;28;20244;-81
2021/06/03 03:30:54;;;;;;;7.43;5.47;;;17.50;99.90;;;;;;5066046;28;20268;-81
2021/06/03 03:33:25;;;;;;;6.23;5.63;;;17.60;99.90;;;;;;5065668;28;20659;-81
2021/06/03 03:35:54;;;;;;;6.17;5.57;;;17.50;99.90;;;;;;5050990;28;20769;-81
2021/06/03 03:38:28;;;;;;;5.73;5.20;;;17.50;99.90;;;;;;5059842;28;20297;-81
2021/06/03 03:40:55;;;;;;;8.07;5.27;;;17.60;99.90;;;;;;5050348;28;20686;-81
2021/06/03 03:43:28;;;;;;;5.43;4.87;;;17.60;99.90;;;;;;5050494;28;20231;-81
2021/06/03 03:45:57;;;;;;;5.90;5.40;;;17.60;99.90;;;;;;5066111;28;20710;-81
2021/06/03 03:48:26;;;;;;;8.37;5.60;;;17.60;99.90;;;;;;5080147;28;20274;-81
2021/06/03 03:50:56;;;;;;;9.13;5.37;;;17.60;99.90;;;;;;5049362;28;20319;-81
2021/06/03 03:53:29;;;;;;;6.60;5.47;;;17.60;99.90;;;;;;5045414;28;20652;-81
2021/06/03 03:55:57;;;;;;;6.20;5.17;;;17.60;99.90;;;;;;5065942;28;20703;-81
2021/06/03 03:58:28;;;;;;;5.80;5.20;;;17.60;99.90;;;;;;5052959;28;20231;-81
2021/06/03 04:00:56;;;;;;;7.40;5.40;;;17.50;99.90;;;;;;5065307;28;20685;-81
2021/06/03 04:03:25;;;;;;;5.80;5.20;;;17.50;99.90;;;;;;5051384;28;20793;-81
2021/06/03 04:06:00;;;;;;;5.73;5.23;;;17.50;99.90;;;;;;5048651;28;20233;-81
2021/06/03 04:08:31;;;;;;;6.33;4.90;;;17.50;99.90;;;;;;5064806;28;20278;-80
2021/06/03 04:11:00;;;;;;;8.10;5.47;;;17.60;99.90;;;;;;5064941;28;20568;-81
2021/06/03 04:13:33;;;;;;;7.73;5.40;;;17.60;99.90;;;;;;5051129;28;20642;-81
2021/06/03 04:16:06;;;;;;;6.07;5.50;;;17.60;99.90;;;;;;5065043;28;20289;-81
2021/06/03 04:18:34;;;;;;;6.00;5.40;;;17.60;99.90;;;;;;5058155;28;20235;-81
2021/06/03 04:21:04;;;;;;;6.60;5.13;;;17.60;99.90;;;;;;5064353;28;20875;-81
2021/06/03 04:23:33;;;;;;;6.27;4.90;;;17.60;99.90;;;;;;5051115;28;20228;-80
2021/06/03 04:26:00;;;;;;;5.53;4.90;;;17.60;99.90;;;;;;5049726;28;20251;-81
2021/06/03 04:28:28;;;;;;;6.93;5.17;;;17.70;99.90;;;;;;5048671;28;20228;-81
2021/06/03 04:30:57;;;;;;;5.27;4.80;;;17.70;99.90;;;;;;5049432;28;20286;-81
2021/06/03 04:33:25;;;;;;;5.70;5.20;;;17.80;99.90;;;;;;5048721;28;20237;-81
2021/06/03 04:35:53;;;;;;;7.60;5.03;;;18.00;99.90;;;;;;5049809;28;20234;-81
2021/06/03 04:38:21;;;;;;;6.20;5.60;;;18.00;99.90;;;;;;5049597;28;20251;-81
2021/06/03 04:40:49;;;;;;;7.63;5.17;;;18.00;99.90;;;;;;5049258;28;20241;-81
2021/06/03 04:43:18;;;;;;;5.27;4.87;;;18.00;99.90;;;;;;5064685;28;20246;-81
2021/06/03 04:45:47;;;;;;;5.50;5.00;;;18.00;99.90;;;;;;5049218;28;20735;-81
2021/06/03 04:48:16;;;;;;;5.77;5.23;;;18.10;99.90;;;;;;5048738;28;20928;-80
2021/06/03 04:50:45;;;;;;;7.23;5.90;;;18.20;99.90;;;;;;5055613;28;20268;-81
2021/06/03 04:53:17;;;;;;;5.47;4.97;;;18.20;99.90;;;;;;5067104;28;20402;-81
2021/06/03 04:55:45;;;;;;;5.87;5.17;;;18.30;99.90;;;;;;5063803;28;20233;-81
2021/06/03 04:58:14;;;;;;;5.27;4.70;;;18.30;99.90;;;;;;5057052;28;20319;-81
2021/06/03 05:00:44;;;;;;;6.03;5.33;;;18.30;99.90;;;;;;5048494;28;20249;-81
2021/06/03 05:03:14;;;;;;;5.60;4.97;;;18.40;99.90;;;;;;5048807;28;20227;-82
2021/06/03 05:05:44;;;;;;;5.77;5.27;;;18.40;99.90;;;;;;5047266;28;20249;-81
2021/06/03 05:08:12;;;;;;;7.00;5.43;;;18.60;99.90;;;;;;5048388;28;20739;-81
2021/06/03 05:10:40;;;;;;;6.73;5.20;;;18.50;99.90;;;;;;5048711;28;20264;-82
2021/06/03 05:13:10;;;;;;;5.80;5.00;;;18.60;99.90;;;;;;5050128;28;20237;-81
2021/06/03 05:15:38;;;;;;;6.57;4.80;;;18.70;99.90;;;;;;5048683;28;20328;-81
2021/06/03 05:18:07;;;;;;;5.77;5.27;;;18.70;99.90;;;;;;5048518;28;20249;-81
2021/06/03 05:20:38;;;;;;;6.20;5.30;;;18.80;99.90;;;;;;5046816;28;20323;-82
2021/06/03 05:23:09;;;;;;;5.80;5.00;;;18.80;99.90;;;;;;5047743;28;20241;-81
2021/06/03 05:25:37;;;;;;;5.73;5.13;;;18.80;99.90;;;;;;5048153;28;20747;-81
2021/06/03 05:28:05;;;;;;;6.40;5.40;;;18.90;99.90;;;;;;5054539;28;20291;-85
2021/06/03 05:30:35;;;;;;;5.30;4.80;;;18.90;99.90;;;;;;5036685;28;20230;-85
2021/06/03 05:33:05;;;;;;;5.97;5.17;;;18.90;99.90;;;;;;5040412;28;20770;-84
2021/06/03 05:35:33;;;;;;;5.67;4.70;;;19.00;99.90;;;;;;5051884;28;21034;-83
2021/06/03 05:38:01;;;;;;;5.83;4.87;;;19.00;99.90;;;;;;5045045;28;20246;-83
2021/06/03 05:40:32;;;;;;;5.40;4.90;;;19.10;99.90;;;;;;5048172;28;20226;-86
2021/06/03 05:43:02;;;;;;;6.10;4.73;;;19.20;99.90;;;;;;5065742;28;20274;-84
2021/06/03 05:45:31;;;;;;;6.97;4.90;;;19.30;99.90;;;;;;5047167;28;20275;-84
2021/06/03 05:47:59;;;;;;;7.17;5.23;;;19.50;99.90;;;;;;5048312;28;20838;-86
2021/06/03 05:50:29;;;;;;;5.33;4.83;;;19.50;99.90;;;;;;5056073;28;20262;-84
2021/06/03 05:52:57;;;;;;;5.73;5.23;;;19.70;99.90;;;;;;5057807;28;20229;-84
2021/06/03 05:55:27;;;;;;;5.50;5.00;;;19.90;99.90;;;;;;5040527;28;20288;-85
2021/06/03 05:57:58;;;;;;;5.70;4.73;;;20.10;99.90;;;;;;5049703;28;20244;-86
2021/06/03 06:00:30;;;;;;;7.83;4.67;;;20.40;99.90;;;;;;5048230;28;20245;-84
2021/06/03 06:03:00;;;;;;;6.17;4.77;;;20.70;99.90;;;;;;5051429;28;20235;-85
2021/06/03 06:08:22;;;;;;;5.40;4.90;;;21.10;99.90;;;;;;5056628;28;20240;-90
2021/06/03 06:10:50;;;;;;;5.77;5.20;;;21.10;99.90;;;;;;5070169;28;20537;-88
2021/06/03 06:13:21;;;;;;;6.30;4.90;;;21.10;99.90;;;;;;5069578;28;20234;-86
2021/06/03 06:15:50;;;;;;;5.93;4.73;;;21.10;99.90;;;;;;5070064;28;20239;-90
2021/06/03 06:18:18;;;;;;;6.47;5.07;;;21.10;99.90;;;;;;5058557;28;20234;-87
2021/06/03 06:20:47;;;;;;;11.00;5.47;;;21.10;99.90;;;;;;5048154;28;20238;-87
2021/06/03 06:23:42;;;;;;;5.97;5.23;;;21.00;99.90;;;;;;5051000;28;20651;-87
2021/06/03 06:26:11;;;;;;;5.30;4.77;;;21.00;99.90;;;;;;5048681;28;20235;-86
2021/06/03 06:29:07;;;;;;;5.43;4.77;;;21.00;99.90;;;;;;5064989;28;20245;-88
2021/06/03 06:31:35;;;;;;;7.00;5.00;;;20.90;99.90;;;;;;5068449;28;20280;-87
2021/06/03 06:34:03;;;;;;;5.50;5.00;;;20.90;99.90;;;;;;5067666;28;20337;-85
2021/06/03 06:36:31;;;;;;;5.57;5.07;;;21.10;99.90;;;;;;5068882;28;20242;-87
2021/06/03 06:39:04;;;;;;;5.10;4.53;;;21.30;99.90;;;;;;5048539;28;20293;-86
2021/06/03 06:41:32;;;;;;;7.03;5.10;;;21.50;99.90;;;;;;5043408;28;20631;-85
2021/06/03 06:43:59;;;;;;;5.13;4.67;;;21.40;99.90;;;;;;5061832;28;20309;-85
2021/06/03 06:46:28;;;;;;;6.00;5.13;;;21.20;99.90;;;;;;5051350;28;20288;-85
2021/06/03 06:49:06;;;;;;;5.10;4.60;;;21.40;99.90;;;;;;5051447;28;20294;-84
2021/06/03 06:51:34;;;;;;;7.03;4.93;;;21.70;99.90;;;;;;5067230;28;20291;-84
2021/06/03 06:54:01;;;;;;;8.17;5.40;;;21.60;99.90;;;;;;5052371;28;20239;-84
2021/06/03 06:56:30;;;;;;;8.40;5.63;;;21.40;99.90;;;;;;5051137;28;20235;-85
2021/06/03 06:58:59;;;;;;;7.03;5.10;;;21.60;99.90;;;;;;5053985;28;20234;-87
2021/06/03 07:01:34;;;;;;;7.07;4.83;;;21.70;99.90;;;;;;5035721;28;20268;-86
2021/06/03 07:04:06;;;;;;;7.30;4.77;;;21.90;99.90;;;;;;5049938;28;20700;-85
2021/06/03 07:07:05;;;;;;;7.87;5.07;;;22.00;99.90;;;;;;5051785;28;20231;-86
2021/06/03 07:09:32;;;;;;;5.67;5.17;;;22.20;99.90;;;;;;5031415;28;20297;-85
2021/06/03 07:12:01;;;;;;;7.07;5.40;;;22.30;99.90;;;;;;5037414;28;20317;-85
2021/06/03 07:14:30;;;;;;;6.30;4.97;;;22.40;99.90;;;;;;5071365;28;20288;-86
2021/06/03 07:17:03;;;;;;;6.87;5.27;;;22.60;99.90;;;;;;5071859;28;20311;-87
2021/06/03 07:19:31;;;;;;;6.60;5.00;;;22.70;99.90;;;;;;5071813;28;20322;-86
2021/06/03 07:21:59;;;;;;;5.47;4.70;;;22.90;99.90;;;;;;5069983;28;20297;-85
2021/06/03 07:24:53;;;;;;;6.37;4.80;;;23.00;99.90;;;;;;5051620;28;20235;-86
2021/06/03 07:27:20;;;;;;;6.10;5.00;;;23.10;99.90;;;;;;5073101;28;20235;-87
2021/06/03 07:29:58;;;;;;;5.00;4.50;;;23.20;99.90;;;;;;5056631;28;20236;-86
2021/06/03 07:32:41;;;;;;;5.50;4.53;;;23.40;99.90;;;;;;5053746;28;20235;-86
2021/06/03 07:35:13;;;;;;;5.30;4.60;;;23.60;99.90;;;;;;5051751;28;20266;-86
2021/06/03 07:37:45;;;;;;;5.90;4.73;;;24.00;99.90;;;;;;5051287;28;20232;-86
2021/06/03 07:40:15;;;;;;;6.20;4.63;;;24.20;99.90;;;;;;5051371;28;20298;-85
2021/06/03 07:42:51;;;;;;;5.43;4.33;;;24.20;99.90;;;;;;5049708;28;20295;-86
2021/06/03 07:45:22;;;;;;;7.07;4.40;;;24.40;99.90;;;;;;5039289;28;20236;-86
2021/06/03 07:47:53;;;;;;;5.43;4.70;;;24.40;99.90;;;;;;5066616;28;20242;-86
2021/06/03 07:50:28;;;;;;;7.93;5.17;;;24.60;99.90;;;;;;5059906;28;20240;-86
2021/06/03 07:53:05;;;;;;;5.80;5.20;;;24.80;99.90;;;;;;5061563;28;20237;-85
2021/06/03 07:55:34;;;;;;;6.80;5.33;;;24.60;99.90;;;;;;5057046;28;20240;-85
2021/06/03 07:58:04;;;;;;;7.63;5.60;;;24.30;99.90;;;;;;5051380;28;20232;-86
2021/06/03 08:00:35;;;;;;;6.07;4.70;;;24.40;99.90;;;;;;5047354;28;20689;-84
2021/06/03 08:03:05;;;;;;;5.30;4.80;;;24.60;99.90;;;;;;5064213;28;20236;-85
2021/06/03 08:05:33;;;;;;;5.63;5.03;;;24.80;99.90;;;;;;5049943;28;20846;-86
2021/06/03 08:08:01;;;;;;;6.53;4.17;;;25.10;99.90;;;;;;5059311;28;20238;-86
2021/06/03 08:10:33;;;;;;;6.93;4.80;;;25.30;99.90;;;;;;5068808;28;20236;-84
2021/06/03 08:13:10;;;;;;;5.43;4.93;;;25.00;99.90;;;;;;5068392;28;20272;-85
2021/06/03 08:15:42;;;;;;;5.90;5.17;;;24.80;99.90;;;;;;5048433;28;20274;-85
2021/06/03 08:18:14;;;;;;;5.87;4.60;;;24.80;99.90;;;;;;5061080;28;20300;-85
2021/06/03 08:20:45;;;;;;;7.00;4.90;;;24.70;99.90;;;;;;5029431;28;20334;-88
2021/06/03 08:23:18;;;;;;;7.33;4.90;;;24.50;99.90;;;;;;5044605;28;20249;-84
2021/06/03 08:25:46;;;;;;;7.30;5.10;;;24.60;99.90;;;;;;5063857;28;20756;-84
2021/06/03 08:28:15;;;;;;;6.00;5.00;;;24.30;99.90;;;;;;5051604;28;20267;-84
2021/06/03 08:30:45;;;;;;;7.67;5.87;;;24.20;99.90;;;;;;5048414;28;20238;-84
2021/06/03 08:33:15;;;;;;;5.30;4.90;;;24.00;99.90;;;;;;5061751;28;20232;-85
2021/06/03 08:35:43;;;;;;;7.43;5.27;;;24.00;99.90;;;;;;5068619;28;21264;-85
2021/06/03 08:38:12;;;;;;;7.07;4.97;;;23.90;99.90;;;;;;5058688;28;20251;-85
2021/06/03 08:40:42;;;;;;;5.20;4.80;;;23.80;99.90;;;;;;5048000;28;20997;-86
2021/06/03 08:43:13;;;;;;;6.67;4.83;;;23.70;99.90;;;;;;5048349;28;20319;-85
2021/06/03 08:45:44;;;;;;;5.47;4.97;;;23.60;99.90;;;;;;5048492;28;20314;-84
2021/06/03 08:48:14;;;;;;;5.70;5.10;;;23.50;99.90;;;;;;5048496;28;20788;-84
2021/06/03 08:50:45;;;;;;;6.67;5.20;;;23.50;99.90;;;;;;5048562;28;20275;-85
2021/06/03 08:53:15;;;;;;;6.03;4.97;;;23.50;99.90;;;;;;5075662;28;20255;-85
2021/06/03 08:58:32;;;;;;;6.67;5.13;;;23.40;99.90;;;;;;5064371;28;20239;-85
2021/06/03 09:01:01;;;;;;;7.13;5.40;;;23.20;99.90;;;;;;5058613;28;20339;-84
2021/06/03 09:03:32;;;;;;;7.67;5.20;;;23.00;99.90;;;;;;5047325;28;20233;-85
2021/06/03 09:06:03;;;;;;;6.00;5.47;;;22.70;99.90;;;;;;5048628;28;20239;-85
2021/06/03 09:08:34;;;;;;;8.10;5.80;;;22.60;99.90;;;;;;5048817;28;20232;-85
2021/06/03 09:11:05;;;;;;;6.13;5.50;;;22.40;99.90;;;;;;5048378;28;20247;-84
2021/06/03 09:13:35;;;;;;;8.63;5.00;;;22.30;99.90;;;;;;5048686;28;20243;-85
2021/06/03 09:16:15;;;;;;;6.60;5.47;;;22.30;99.90;;;;;;5048803;28;20244;-83
2021/06/03 09:18:49;;;;;;;6.30;5.60;;;22.30;99.90;;;;;;5048446;28;20252;-84
2021/06/03 09:21:21;;;;;;;6.50;5.90;;;22.30;99.90;;;;;;5063676;28;20263;-85
2021/06/03 09:23:58;;;;;;;5.97;5.20;;;22.30;99.90;;;;;;5074359;28;20231;-85
2021/06/03 09:26:29;;;;;;;7.07;5.30;;;22.20;99.90;;;;;;5048199;28;20246;-85
2021/06/03 09:29:00;;;;;;;5.50;5.00;;;22.20;99.90;;;;;;5067350;28;20241;-86
2021/06/03 09:31:30;;;;;;;5.63;5.13;;;22.10;99.90;;;;;;5067066;28;20242;-87
2021/06/03 09:34:03;;;;;;;5.70;5.13;;;22.10;99.90;;;;;;5064817;28;20232;-87
2021/06/03 09:36:41;;;;;;;5.43;4.90;;;22.00;99.90;;;;;;5028268;28;20294;-87
2021/06/03 09:39:34;;;;;;;7.77;5.60;;;21.90;99.90;;;;;;5061642;28;20239;-84
2021/06/03 09:42:16;;;;;;;7.17;5.70;;;21.80;99.90;;;;;;5037157;28;20232;-85
2021/06/03 09:44:47;;;;;;;6.90;5.90;;;21.60;99.90;;;;;;5046797;28;20604;-84
2021/06/03 09:47:26;;;;;;;6.70;5.80;;;21.50;99.90;;;;;;5052044;28;20231;-82
2021/06/03 09:49:58;;;;;;;5.93;5.00;;;21.30;99.90;;;;;;5067627;28;20227;-83
2021/06/03 09:52:33;;;;;;;6.83;6.17;;;21.20;99.90;;;;;;5061089;28;20236;-83
2021/06/03 09:55:06;;;;;;;6.80;6.20;;;21.20;99.90;;;;;;5054844;28;20317;-83
2021/06/03 09:57:37;;;;;;;6.97;6.37;;;21.00;99.90;;;;;;5049878;28;20649;-83
2021/06/03 10:00:09;;;;;;;7.30;6.60;;;21.00;99.90;;;;;;5047306;28;20232;-83
2021/06/03 10:02:44;;;;;;;7.73;6.00;;;20.80;99.90;;;;;;5055572;28;20629;-83
2021/06/03 10:05:17;;;;;;;6.50;6.00;;;20.80;99.90;;;;;;5058051;28;20552;-83
2021/06/03 10:07:55;;;;;;;9.13;7.57;;;20.70;99.90;;;;;;5056553;28;20303;-82
2021/06/03 10:10:25;;;;;;;7.87;7.00;;;20.60;99.90;;;;;;5047677;28;20986;-83
2021/06/03 10:12:53;;;;;;;8.10;6.80;;;20.50;99.90;;;;;;5057579;28;20567;-83
2021/06/03 10:15:35;;;;;;;9.77;7.27;;;20.40;99.90;;;;;;5054528;28;20290;-81
2021/06/03 10:18:06;;;;;;;7.77;6.57;;;20.40;99.90;;;;;;5049519;28;20930;-80
2021/06/03 10:20:39;;;;;;;7.20;6.40;;;20.40;99.90;;;;;;5035416;28;20866;-81
2021/06/03 10:23:11;;;;;;;9.30;7.63;;;20.30;99.90;;;;;;5040734;28;20261;-80
2021/06/03 10:25:43;;;;;;;7.50;6.70;;;20.30;99.90;;;;;;5052445;28;20236;-79
2021/06/03 10:28:14;;;;;;;7.90;6.97;;;20.20;99.90;;;;;;5054354;28;20242;-80
2021/06/03 10:30:47;;;;;;;9.03;7.67;;;20.20;99.90;;;;;;5044996;28;20259;-85
2021/06/03 10:33:19;;;;;;;9.30;7.60;;;20.20;99.90;;;;;;5046447;28;20250;-85
2021/06/03 10:35:54;;;;;;;8.53;7.83;;;20.10;99.90;;;;;;5045822;28;20235;-85
2021/06/03 10:38:32;;;;;;;8.53;7.67;;;20.10;99.90;;;;;;5054116;28;20234;-87
2021/06/03 10:41:06;;;;;;;8.97;8.07;;;20.00;99.90;;;;;;5051096;28;20645;-85
2021/06/03 10:43:37;;;;;;;9.07;8.17;;;20.00;99.90;;;;;;5069236;28;20595;-85
2021/06/03 10:46:07;;;;;;;10.37;8.10;;;19.90;99.90;;;;;;5045284;28;20650;-87
2021/06/03 10:48:35;;;;;;;8.57;7.70;;;19.90;99.90;;;;;;5048029;28;20710;-86
2021/06/03 10:51:09;;;;;;;10.47;8.10;;;19.90;99.90;;;;;;5038443;28;20240;-82
2021/06/03 10:53:44;;;;;;;8.40;7.60;;;19.90;99.90;;;;;;5050315;28;20285;-82
2021/06/03 10:56:14;;;;;;;9.77;7.90;;;19.80;99.90;;;;;;5045712;28;20232;-82
2021/06/03 10:58:43;;;;;;;10.27;8.00;;;19.80;99.90;;;;;;5052763;28;20703;-87
2021/06/03 11:01:12;;;;;;;9.00;7.70;;;19.70;99.90;;;;;;5050340;28;20682;-86
2021/06/03 11:03:45;;;;;;;8.67;7.83;;;19.70;99.90;;;;;;5060376;28;20725;-88
2021/06/03 11:06:18;;;;;;;8.70;7.80;;;19.80;99.90;;;;;;5052586;28;20316;-83
2021/06/03 11:08:50;;;;;;;9.43;8.03;;;19.80;99.90;;;;;;5051209;28;20695;-83
2021/06/03 11:11:27;;;;;;;10.00;9.07;;;19.70;99.90;;;;;;5049976;28;20238;-83
2021/06/03 11:14:05;;;;;;;11.23;8.73;;;19.60;99.90;;;;;;5050738;28;21163;-83
2021/06/03 11:16:52;;;;;;;11.57;8.13;;;19.50;99.90;;;;;;5051225;28;20243;-82
2021/06/03 11:20:01;;;;;;;9.30;8.37;;;19.50;99.90;;;;;;5038166;28;20247;-83
2021/06/03 11:22:31;;;;;;;12.53;9.60;;;19.40;99.90;;;;;;5049840;28;20710;-82
2021/06/03 11:25:04;;;;;;;11.43;8.53;;;19.30;99.90;;;;;;5050853;28;20936;-82
2021/06/03 11:27:37;;;;;;;12.50;9.17;;;19.30;99.90;;;;;;5052727;28;20300;-80
2021/06/03 11:30:11;;;;;;;10.07;9.07;;;19.20;99.90;;;;;;5047136;28;20235;-83
2021/06/03 11:32:50;;;;;;;12.10;9.60;;;19.10;99.90;;;;;;5052611;28;20242;-81
2021/06/03 11:35:30;;;;;;;11.17;8.30;;;19.10;99.90;;;;;;5049670;28;20240;-80
2021/06/03 11:38:06;;;;;;;10.13;8.60;;;19.10;99.90;;;;;;5060037;28;20242;-82
2021/06/03 11:40:42;;;;;;;9.53;8.63;;;19.10;99.90;;;;;;5033576;28;20247;-81
2021/06/03 11:43:12;;;;;;;9.23;8.40;;;19.10;99.90;;;;;;5050147;28;20239;-82
2021/06/03 11:45:44;;;;;;;10.07;9.13;;;19.10;99.90;;;;;;5050392;28;20249;-83
2021/06/03 11:48:31;;;;;;;11.07;8.53;;;19.10;99.90;;;;;;5049325;28;20235;-80
2021/06/03 11:51:08;;;;;;;9.37;8.40;;;19.10;99.90;;;;;;5049714;28;20243;-82
2021/06/03 11:54:09;;;;;;;10.43;8.43;;;19.10;99.90;;;;;;5067855;28;20348;-81
2021/06/03 11:57:14;;;;;;;9.63;8.47;;;19.20;99.90;;;;;;5058702;28;20640;-82
2021/06/03 12:03:44;;;;;;;10.77;8.53;;;19.20;99.90;;;;;;5044486;28;20245;-82
2021/06/03 12:06:16;;;;;;;8.67;7.87;;;19.20;99.90;;;;;;5050788;28;20332;-83
2021/06/03 12:08:56;;;;;;;9.83;8.90;;;19.20;99.90;;;;;;5059818;28;20235;-82
2021/06/03 12:11:45;;;;;;;9.20;8.27;;;19.20;99.90;;;;;;5048969;28;20234;-82
2021/06/03 12:14:17;;;;;;;9.00;8.10;;;19.20;99.90;;;;;;5046459;28;20230;-83
2021/06/03 12:16:50;;;;;;;9.93;8.83;;;19.20;99.90;;;;;;5047528;28;20696;-83
2021/06/03 12:19:23;;;;;;;9.50;8.70;;;19.20;99.90;;;;;;5068985;28;20246;-83
2021/06/03 12:21:55;;;;;;;10.07;9.17;;;19.10;99.90;;;;;;5066948;28;20303;-82
2021/06/03 12:24:38;;;;;;;10.47;9.57;;;19.10;99.90;;;;;;5048798;28;20242;-83
2021/06/03 12:27:21;;;;;;;10.17;9.27;;;19.10;99.90;;;;;;5049756;28;20497;-83
2021/06/03 12:30:15;;;;;;;11.03;10.00;;;19.10;99.90;;;;;;5049352;28;20254;-83
2021/06/03 12:32:59;;;;;;;10.63;9.63;;;19.10;99.90;;;;;;5072626;28;20230;-84
2021/06/03 12:35:36;;;;;;;11.77;10.57;;;19.10;99.90;;;;;;5029290;28;21011;-83
2021/06/03 12:38:05;;;;;;;11.77;10.57;;;19.10;99.90;;;;;;5043632;28;20292;-84
2021/06/03 12:40:34;;;;;;;11.67;10.67;;;19.10;99.90;;;;;;5048475;28;20235;-83
2021/06/03 12:43:06;;;;;;;9.93;9.03;;;19.20;99.90;;;;;;5048623;28;20246;-84
2021/06/03 12:45:37;;;;;;;10.73;9.73;;;19.20;99.90;;;;;;5048650;28;20307;-83
2021/06/03 12:48:07;;;;;;;11.17;10.07;;;19.30;99.90;;;;;;5075855;28;20261;-83
2021/06/03 12:50:37;;;;;;;12.97;11.67;;;19.30;99.90;;;;;;5068068;28;20237;-84
2021/06/03 12:53:09;;;;;;;12.10;10.87;;;19.40;99.90;;;;;;5058841;28;20330;-84
2021/06/03 12:55:39;;;;;;;11.20;10.03;;;19.40;99.90;;;;;;5048398;28;20784;-84
2021/06/03 12:58:10;;;;;;;12.20;11.10;;;19.50;99.90;;;;;;5051591;28;20259;-84
2021/06/03 13:00:42;;;;;;;11.10;10.00;;;19.70;99.90;;;;;;5048691;28;20342;-84
2021/06/03 13:03:14;;;;;;;12.03;10.93;;;19.80;99.90;;;;;;5049853;28;20634;-84
2021/06/03 13:05:46;;;;;;;11.83;10.83;;;19.80;99.90;;;;;;5048746;28;20242;-84
2021/06/03 13:08:18;;;;;;;13.50;12.13;;;19.80;99.90;;;;;;5048325;28;20235;-84
2021/06/03 13:10:47;;;;;;;13.43;11.50;;;19.90;99.90;;;;;;5046969;28;20359;-84
2021/06/03 13:13:23;;;;;;;12.20;11.13;;;20.00;99.90;;;;;;5055060;28;20239;-84
2021/06/03 13:15:52;;;;;;;13.10;11.90;;;20.10;99.90;;;;;;5068403;28;20241;-84
2021/06/03 13:18:26;;;;;;;13.07;11.87;;;20.20;99.90;;;;;;5065913;28;20262;-85